Time;durP1;ratioP1;P1;durP2;ratioP2;P2;SDS_P1;SDS_P2;PMS_P1;PMS_P2;Temp;Humidity;BMP_temperature;BMP_pressure;BME280_temperature;BME280_humidity;BME280_pressure;Samples;Min_cycle;Max_cycle;Signal;HPM_P1;HPM_P2
2022/12/26 00:00:20;;;;;;;4.60;3.47;;;;;;;1.06;77.55;97337.09;5136200;27;20476;-62
2022/12/26 00:02:50;;;;;;;6.45;2.78;;;;;;;1.13;78.85;97334.59;5136582;27;20047;-63
2022/12/26 00:05:17;;;;;;;2.88;1.75;;;;;;;1.25;77.37;97346.78;5135984;27;20400;-63
2022/12/26 00:07:44;;;;;;;5.90;1.80;;;;;;;1.30;76.62;97356.28;5136318;27;20047;-62
2022/12/26 00:10:15;;;;;;;6.60;3.50;;;;;;;1.24;76.54;97357.91;5135911;27;20086;-62
2022/12/26 00:12:42;;;;;;;8.23;4.70;;;;;;;1.24;76.64;97362.22;5136149;27;20075;-64
2022/12/26 00:15:10;;;;;;;11.18;3.38;;;;;;;1.19;76.20;97369.03;5136258;27;20051;-63
2022/12/26 00:17:38;;;;;;;10.27;4.72;;;;;;;1.12;76.24;97380.97;5135856;27;20043;-61
2022/12/26 00:20:07;;;;;;;2.85;2.05;;;;;;;1.08;76.16;97376.63;5135730;27;20579;-62
2022/12/26 00:22:35;;;;;;;3.10;1.83;;;;;;;1.04;76.72;97380.00;5135730;27;20043;-61
2022/12/26 00:25:05;;;;;;;5.63;2.03;;;;;;;0.92;76.64;97381.56;5135716;27;20476;-62
2022/12/26 00:27:33;;;;;;;3.22;1.50;;;;;;;0.81;76.36;97381.41;5135817;27;20070;-63
2022/12/26 00:30:00;;;;;;;2.72;1.70;;;;;;;0.70;77.05;97377.81;5135578;27;20155;-61
2022/12/26 00:32:27;;;;;;;2.78;1.63;;;;;;;0.65;77.99;97384.59;5135428;27;20579;-63
2022/12/26 00:35:00;;;;;;;3.97;2.47;;;;;;;0.62;78.74;97385.44;5135525;27;20047;-63
2022/12/26 00:37:27;;;;;;;3.70;1.65;;;;;;;0.55;79.80;97384.47;5135315;27;20043;-63
2022/12/26 00:39:55;;;;;;;5.88;1.95;;;;;;;0.58;79.90;97388.81;5135219;27;20502;-60
2022/12/26 00:42:36;;;;;;;5.50;2.00;;;;;;;0.60;79.70;97392.28;5135556;27;20435;-62
2022/12/26 00:45:07;;;;;;;3.85;1.70;;;;;;;0.62;81.04;97388.88;5135035;27;20588;-63
2022/12/26 00:47:35;;;;;;;6.53;1.50;;;;;;;0.65;79.58;97395.78;5135226;27;20046;-62
2022/12/26 00:50:05;;;;;;;3.00;1.80;;;;;;;0.64;78.80;97399.22;5135088;27;20111;-63
2022/12/26 00:52:32;;;;;;;3.97;1.70;;;;;;;0.64;78.54;97391.47;5134996;27;20043;-62
2022/12/26 00:54:59;;;;;;;5.00;2.03;;;;;;;0.60;77.86;97389.72;5135059;27;20047;-61
2022/12/26 00:57:26;;;;;;;6.00;2.63;;;;;;;0.59;78.08;97391.41;5135150;27;20519;-63
2022/12/26 00:59:53;;;;;;;14.93;6.88;;;;;;;0.59;77.97;97391.41;5135042;27;20047;-63
2022/12/26 01:02:39;;;;;;;3.90;2.38;;;;;;;0.55;77.26;97393.91;5135054;27;20062;-61
2022/12/26 01:05:10;;;;;;;10.05;4.40;;;;;;;0.49;77.27;97390.38;5134882;27;20079;-63
2022/12/26 01:07:41;;;;;;;6.95;3.92;;;;;;;0.39;77.64;97387.66;5134960;27;20082;-62
2022/12/26 01:10:12;;;;;;;10.88;3.33;;;;;;;0.34;78.65;97390.16;5135102;27;20051;-64
2022/12/26 01:12:39;;;;;;;3.85;2.45;;;;;;;0.37;78.45;97396.19;5134851;27;20095;-61
2022/12/26 01:15:07;;;;;;;3.17;2.13;;;;;;;0.31;78.27;97397.81;5135107;27;20119;-63
2022/12/26 01:17:35;;;;;;;3.13;2.05;;;;;;;0.37;78.59;97397.94;5134838;27;20079;-64
2022/12/26 01:20:03;;;;;;;5.18;2.70;;;;;;;0.41;78.72;97409.13;5134755;27;20050;-64
2022/12/26 01:22:32;;;;;;;5.45;3.15;;;;;;;0.45;78.31;97414.34;5134647;27;20150;-64
2022/12/26 01:25:00;;;;;;;13.98;5.57;;;;;;;0.47;78.07;97415.25;5134647;27;20439;-62
2022/12/26 01:27:27;;;;;;;4.22;2.63;;;;;;;0.34;78.29;97410.75;5134532;27;20053;-65
2022/12/26 01:29:55;;;;;;;3.03;1.95;;;;;;;0.24;79.39;97405.44;5134545;27;20081;-62
2022/12/26 01:32:22;;;;;;;13.73;6.32;;;;;;;0.19;80.84;97404.50;5134318;27;20047;-64
2022/12/26 01:34:51;;;;;;;8.98;4.03;;;;;;;0.21;81.22;97400.22;5134564;27;20043;-63
2022/12/26 01:37:18;;;;;;;8.27;4.13;;;;;;;0.27;80.63;97391.75;5134446;27;20068;-61
2022/12/26 01:39:48;;;;;;;5.32;2.80;;;;;;;0.23;79.94;97395.13;5134361;27;20043;-64
2022/12/26 01:42:17;;;;;;;3.78;1.80;;;;;;;0.12;80.05;97382.94;5134281;27;20146;-63
2022/12/26 01:44:59;;;;;;;4.90;2.45;;;;;;;0.06;80.59;97381.97;5133958;27;20508;-65
2022/12/26 01:47:40;;;;;;;2.38;1.73;;;;;;;0.07;80.12;97376.84;5134279;27;20086;-61
2022/12/26 01:50:26;;;;;;;4.97;1.85;;;;;;;0.00;80.64;97369.88;5133438;27;20043;-64
2022/12/26 01:52:55;;;;;;;4.25;1.75;;;;;;;-0.01;81.61;97368.13;5134349;27;20075;-59
2022/12/26 01:55:24;;;;;;;2.45;1.85;;;;;;;0.05;82.53;97368.22;5134257;27;20078;-61
2022/12/26 01:57:56;;;;;;;6.75;1.80;;;;;;;0.07;82.33;97366.56;5134253;27;20089;-64
2022/12/26 02:00:26;;;;;;;2.63;1.77;;;;;;;0.03;82.18;97369.06;5134115;27;20484;-62
2022/12/26 02:05:39;;;;;;;6.70;3.70;;;;;;;0.01;83.55;97379.31;5134327;28;20133;-60
2022/12/26 02:08:12;;;;;;;11.77;4.20;;;;;;;0.06;83.16;97387.13;5134295;28;20475;-60
2022/12/26 02:10:47;;;;;;;10.48;3.45;;;;;;;0.08;82.76;97380.28;5133969;28;20090;-61
2022/12/26 02:13:15;;;;;;;8.60;3.65;;;;;;;0.17;82.63;97380.44;5133808;28;20053;-62
2022/12/26 02:15:43;;;;;;;17.42;7.95;;;;;;;0.22;82.59;97383.09;5133960;28;20047;-64
2022/12/26 02:18:10;;;;;;;8.02;3.28;;;;;;;0.26;82.27;97379.72;5134033;28;20039;-64
2022/12/26 02:20:44;;;;;;;10.18;5.30;;;;;;;0.20;82.42;97384.75;5133928;28;20055;-61
2022/12/26 02:23:43;;;;;;;14.32;4.15;;;;;;;0.29;81.96;97391.78;5133990;28;20059;-61
2022/12/26 02:26:37;;;;;;;5.35;3.17;;;;;;;0.33;81.10;97384.13;5133892;28;20043;-64
2022/12/26 02:29:38;;;;;;;3.97;2.08;;;;;;;0.34;80.69;97385.00;5133776;28;20405;-62
2022/12/26 02:32:11;;;;;;;;;;;;;;;0.30;80.49;97393.53;5134143;28;20488;-61
2022/12/26 02:34:50;;;;;;;4.20;2.35;;;;;;;0.20;80.44;97395.06;5133757;28;19926;-64
2022/12/26 02:37:33;;;;;;;6.25;1.75;;;;;;;0.07;81.67;97409.44;5133712;28;20062;-63
2022/12/26 02:40:18;;;;;;;3.92;1.40;;;;;;;0.03;81.71;97417.94;5133827;28;20438;-65
2022/12/26 02:42:57;;;;;;;2.72;1.38;;;;;;;-0.02;82.42;97407.56;5133646;28;20043;-61
2022/12/26 02:48:27;;;;;;;3.50;1.50;;;;;;;-0.11;81.67;97425.41;5133676;28;20057;-64
2022/12/26 03:13:45;;;;;;;2.40;1.30;;;;;;;-0.20;81.83;97431.25;5137320;27;20117;-64
2022/12/26 03:19:02;;;;;;;3.60;1.15;;;;;;;-0.22;81.24;97409.75;5137298;27;20192;-63
2022/12/26 03:21:35;;;;;;;2.35;1.30;;;;;;;-0.24;81.18;97399.44;5137303;27;20047;-65
2022/12/26 03:24:02;;;;;;;1.67;1.40;;;;;;;-0.23;80.92;97406.34;5137004;27;20492;-64
2022/12/26 03:26:39;;;;;;;2.13;1.20;;;;;;;-0.20;80.20;97406.38;5137015;27;20050;-62
2022/12/26 03:31:51;;;;;;;1.42;1.20;;;;;;;-0.28;80.35;97403.66;5136874;27;20054;-60
2022/12/26 03:34:19;;;;;;;2.45;1.23;;;;;;;-0.24;81.52;97408.88;5137016;27;20058;-62
2022/12/26 03:37:05;;;;;;;2.22;1.50;;;;;;;-0.32;81.77;97403.56;5136649;27;20090;-61
2022/12/26 04:19:44;;;;;;;4.70;2.78;;;;;;;-0.08;80.47;97394.59;5136037;27;20561;-63
2022/12/26 04:44:48;;;;;;;4.38;1.70;;;;;;;-0.57;83.88;97429.66;5135277;27;20054;-63
2022/12/26 04:47:15;;;;;;;;;;;;;;;-0.45;84.54;97438.47;5135764;27;20043;-61
2022/12/26 04:52:53;;;;;;;4.35;2.63;;;;;;;-0.32;84.01;97453.31;5135470;27;20511;-65
2022/12/26 04:55:16;;;;;;;4.20;1.90;;;;;;;-0.34;83.36;97446.38;5134934;27;20069;-64
2022/12/26 04:57:45;;;;;;;3.63;1.98;;;;;;;-0.33;83.34;97450.72;5135130;27;20042;-61
2022/12/26 05:00:15;;;;;;;2.88;2.05;;;;;;;-0.35;83.31;97460.09;5135279;27;20062;-62
2022/12/26 05:11:07;;;;;;;4.93;2.45;;;;;;;-0.54;83.71;97470.00;5134955;27;20054;-66
2022/12/26 05:13:34;;;;;;;5.13;3.13;;;;;;;-0.58;84.23;97471.63;5134756;27;20051;-64
2022/12/26 05:29:45;;;;;;;9.07;1.98;;;;;;;-0.35;82.46;97462.66;5134928;27;20495;-65
2022/12/26 05:32:23;;;;;;;;;;;;;;;;;;;;;
2022/12/26 05:34:51;;;;;;;5.18;1.70;;;;;;;-0.47;82.42;97466.72;5051513;27;20035;-62
2022/12/26 05:37:20;;;;;;;7.72;2.03;;;;;;;-0.51;82.46;97462.38;5134474;27;20051;-65
2022/12/26 05:39:47;;;;;;;3.25;2.17;;;;;;;-0.57;82.80;97468.22;5134283;27;20488;-62
2022/12/26 05:42:14;;;;;;;5.90;2.08;;;;;;;-0.65;83.57;97462.06;5134390;27;20043;-61
2022/12/26 05:44:42;;;;;;;3.35;2.05;;;;;;;-0.59;84.19;97459.63;5134062;27;20043;-60
2022/12/26 05:47:10;;;;;;;8.38;3.00;;;;;;;-0.63;84.25;97460.41;5134355;27;20047;-61
2022/12/26 05:49:39;;;;;;;7.88;3.60;;;;;;;-0.55;84.08;97463.13;5134281;27;20047;-66
2022/12/26 05:52:07;;;;;;;6.88;2.65;;;;;;;-0.59;84.16;97453.59;5134145;27;20480;-64
2022/12/26 05:54:34;;;;;;;4.45;2.20;;;;;;;-0.66;83.90;97463.75;5134227;27;20051;-63
2022/12/26 05:57:02;;;;;;;2.83;2.00;;;;;;;-0.59;84.01;97456.19;5134152;27;20047;-63
2022/12/26 05:59:29;;;;;;;1.70;1.52;;;;;;;-0.61;83.77;97451.00;5134097;27;20043;-63
2022/12/26 06:01:56;;;;;;;2.95;1.60;;;;;;;-0.59;83.70;97453.59;5134038;27;20047;-61
2022/12/26 06:04:23;;;;;;;3.53;2.10;;;;;;;-0.57;83.69;97457.94;5134051;27;20051;-65
2022/12/26 06:06:55;;;;;;;5.35;1.85;;;;;;;-0.51;83.22;97462.38;5134042;28;20089;-61
2022/12/26 06:09:22;;;;;;;1.85;1.58;;;;;;;-0.52;83.50;97466.63;5134132;28;20047;-65
2022/12/26 06:11:50;;;;;;;4.88;1.65;;;;;;;-0.55;83.86;97470.81;5134002;28;20503;-63
2022/12/26 06:14:18;;;;;;;5.25;3.03;;;;;;;-0.53;84.22;97469.16;5134377;28;20547;-64
2022/12/26 06:16:48;;;;;;;13.68;6.35;;;;;;;-0.46;84.60;97471.03;5133822;28;20054;-63
2022/12/26 06:19:16;;;;;;;8.73;5.13;;;;;;;-0.34;85.81;97479.81;5133915;28;20050;-62
2022/12/26 06:21:44;;;;;;;12.10;6.32;;;;;;;-0.23;86.07;97482.63;5133936;28;20046;-63
2022/12/26 06:24:19;;;;;;;10.65;4.57;;;;;;;-0.12;85.28;97478.53;5133835;28;20122;-62
2022/12/26 06:26:48;;;;;;;8.82;2.40;;;;;;;0.11;85.57;97486.72;5133909;28;20086;-61
2022/12/26 06:29:17;;;;;;;3.55;2.35;;;;;;;1.28;87.66;97484.28;5133928;28;20051;-64
2022/12/26 06:31:44;;;;;;;3.10;2.60;;;;;;;3.13;78.82;97478.47;5133586;28;20485;-61
2022/12/26 06:34:12;;;;;;;2.22;1.55;;;;;;;4.99;68.45;97484.22;5133905;28;20061;-64
2022/12/26 06:36:40;;;;;;;1.25;1.10;;;;;;;6.66;59.97;97486.22;5135431;27;20446;-63
2022/12/26 06:39:10;;;;;;;2.25;1.40;;;;;;;8.18;55.11;97493.38;5138121;27;20116;-63
2022/12/26 06:41:39;;;;;;;3.67;1.48;;;;;;;9.41;50.32;97492.38;5137890;27;20043;-63
2022/12/26 06:44:06;;;;;;;2.50;1.65;;;;;;;10.58;48.21;97497.91;5137621;27;20496;-65
2022/12/26 06:46:40;;;;;;;1.60;1.45;;;;;;;11.73;45.72;97497.69;5137701;27;20519;-63
2022/12/26 06:49:08;;;;;;;1.40;1.10;;;;;;;13.00;42.44;97502.72;5137550;27;20112;-64
2022/12/26 06:51:45;;;;;;;2.05;1.35;;;;;;;14.10;40.43;97499.88;5137457;27;20055;-66
2022/12/26 06:54:14;;;;;;;1.20;1.10;;;;;;;14.94;38.05;97503.75;5136740;27;20126;-67
2022/12/26 06:56:46;;;;;;;3.28;1.23;;;;;;;15.65;36.99;97497.28;5137653;27;20047;-64
2022/12/26 06:59:13;;;;;;;2.38;1.33;;;;;;;16.42;35.88;97497.44;5137529;27;20061;-65
2022/12/26 07:01:41;;;;;;;2.15;1.60;;;;;;;17.15;34.42;97502.84;5137411;27;20047;-64
2022/12/26 07:04:13;;;;;;;4.70;1.90;;;;;;;17.73;32.72;97494.69;5137380;27;20485;-63
2022/12/26 07:06:43;;;;;;;1.70;1.60;;;;;;;18.35;32.08;97494.06;5137315;27;20074;-65
2022/12/26 07:09:13;;;;;;;2.63;1.63;;;;;;;18.76;31.42;97494.53;5137134;27;20082;-66
2022/12/26 07:11:44;;;;;;;3.00;1.80;;;;;;;19.10;31.25;97497.94;5137119;27;20083;-66
2022/12/26 07:14:12;;;;;;;2.45;1.48;;;;;;;19.66;30.44;97491.16;5137219;27;20043;-62
2022/12/26 07:16:41;;;;;;;2.05;1.20;;;;;;;19.98;29.95;97487.50;5137019;27;20092;-62
2022/12/26 07:19:11;;;;;;;1.35;1.23;;;;;;;20.48;29.37;97481.78;5137137;27;20043;-66
2022/12/26 07:21:39;;;;;;;1.13;1.00;;;;;;;20.60;29.35;97488.13;5137002;27;20485;-65
2022/12/26 07:24:17;;;;;;;2.05;1.23;;;;;;;20.87;29.00;97489.97;5137017;27;20093;-64
2022/12/26 07:26:47;;;;;;;1.02;0.90;;;;;;;20.99;29.01;97499.84;5137136;27;20051;-66
2022/12/26 07:29:16;;;;;;;2.22;1.27;;;;;;;21.40;28.33;97500.69;5136862;27;20075;-66
2022/12/26 07:31:47;;;;;;;1.17;0.80;;;;;;;21.75;27.90;97503.72;5136820;27;20043;-63
2022/12/26 07:34:16;;;;;;;1.13;1.02;;;;;;;22.03;27.82;97497.34;5136857;27;20134;-65
2022/12/26 07:36:50;;;;;;;1.73;1.42;;;;;;;22.33;26.98;97503.28;5136746;27;20055;-62
2022/12/26 07:39:18;;;;;;;2.85;1.52;;;;;;;22.72;26.48;97503.22;5136733;27;20043;-64
2022/12/26 07:41:59;;;;;;;2.67;1.48;;;;;;;23.21;25.72;97504.09;5136536;27;20043;-66
2022/12/26 07:44:28;;;;;;;2.38;1.48;;;;;;;23.51;25.48;97504.59;5136441;27;20054;-63
2022/12/26 07:46:57;;;;;;;2.33;1.60;;;;;;;23.81;25.36;97505.03;5136461;27;20047;-63
2022/12/26 07:49:25;;;;;;;1.65;1.33;;;;;;;24.17;24.84;97510.34;5135518;27;20485;-66
2022/12/26 07:51:58;;;;;;;2.08;1.25;;;;;;;24.31;24.50;97515.44;5136423;27;20043;-64
2022/12/26 07:54:28;;;;;;;2.97;1.45;;;;;;;24.29;24.88;97521.88;5136473;27;20445;-62
2022/12/26 07:56:58;;;;;;;2.35;1.45;;;;;;;24.48;24.76;97510.56;5136280;27;20100;-63
2022/12/26 07:59:31;;;;;;;1.77;1.42;;;;;;;24.71;23.88;97514.06;5136394;27;20047;-64
2022/12/26 08:01:58;;;;;;;3.25;1.50;;;;;;;24.79;23.81;97512.59;5136205;27;20062;-67
2022/12/26 08:04:26;;;;;;;2.10;1.10;;;;;;;24.77;23.64;97512.69;5136206;27;20484;-65
2022/12/26 08:06:54;;;;;;;4.40;1.98;;;;;;;24.93;23.16;97520.38;5136151;27;20090;-63
2022/12/26 08:09:23;;;;;;;2.90;1.98;;;;;;;25.25;23.80;97529.38;5136122;27;20047;-63
2022/12/26 08:12:04;;;;;;;2.85;1.73;;;;;;;24.85;23.51;97531.66;5135960;27;20050;-64
2022/12/26 08:14:33;;;;;;;4.05;2.40;;;;;;;24.37;24.05;97535.47;5135973;27;20087;-64
2022/12/26 08:17:01;;;;;;;3.67;2.10;;;;;;;24.56;24.06;97532.19;5136013;27;20047;-65
2022/12/26 08:19:30;;;;;;;2.33;1.42;;;;;;;24.42;23.60;97535.97;5135839;27;20287;-62
2022/12/26 08:21:59;;;;;;;2.10;1.45;;;;;;;24.46;23.77;97542.78;5135993;27;20051;-63
2022/12/26 08:24:26;;;;;;;2.30;1.52;;;;;;;24.59;23.75;97528.44;5135785;27;20051;-63
2022/12/26 08:26:54;;;;;;;3.45;1.42;;;;;;;24.28;24.24;97530.84;5135717;27;20043;-64
2022/12/26 08:29:23;;;;;;;3.95;3.15;;;;;;;24.09;24.28;97530.47;5135624;27;20047;-64
2022/12/26 08:31:51;;;;;;;3.53;2.55;;;;;;;24.27;23.79;97519.34;5135573;27;20100;-63
2022/12/26 08:34:20;;;;;;;2.60;1.92;;;;;;;24.45;23.58;97522.38;5135434;27;20104;-64
2022/12/26 08:36:51;;;;;;;3.72;2.08;;;;;;;24.45;23.76;97530.41;5135575;27;20069;-62
2022/12/26 08:39:18;;;;;;;1.75;1.63;;;;;;;23.38;25.16;97506.50;5135396;27;20122;-62
2022/12/26 08:41:46;;;;;;;2.60;1.90;;;;;;;22.65;26.19;97518.84;5135395;27;20043;-61
2022/12/26 08:44:16;;;;;;;2.78;1.67;;;;;;;21.67;27.46;97514.91;5135091;27;20063;-65
2022/12/26 08:46:46;;;;;;;2.55;1.60;;;;;;;20.62;29.27;97504.84;5135262;27;20047;-63
2022/12/26 08:49:14;;;;;;;3.50;2.00;;;;;;;19.88;30.24;97505.78;5135380;27;20043;-64
2022/12/26 08:51:41;;;;;;;3.47;2.40;;;;;;;19.68;30.15;97502.53;5135268;27;20097;-65
2022/12/26 08:54:08;;;;;;;4.53;2.80;;;;;;;19.62;30.58;97505.56;5135144;27;20090;-62
2022/12/26 08:56:36;;;;;;;5.05;3.45;;;;;;;19.14;31.49;97495.97;5135042;27;20049;-64
2022/12/26 08:59:04;;;;;;;4.90;3.40;;;;;;;18.64;32.75;97490.75;5134925;27;20043;-63
2022/12/26 09:01:32;;;;;;;5.38;3.33;;;;;;;18.42;32.21;97487.50;5135153;27;20127;-65
2022/12/26 09:04:03;;;;;;;6.13;2.65;;;;;;;17.83;33.51;97485.31;5135105;27;20074;-63
2022/12/26 09:06:37;;;;;;;7.28;3.65;;;;;;;17.37;33.75;97488.56;5135140;27;20046;-64
2022/12/26 09:09:05;;;;;;;5.78;3.35;;;;;;;16.80;35.03;97491.25;5135161;27;20126;-62
2022/12/26 09:11:33;;;;;;;7.35;3.05;;;;;;;16.11;36.36;97479.50;5134789;27;20069;-62
2022/12/26 09:14:02;;;;;;;2.97;2.33;;;;;;;15.56;37.62;97476.56;5134624;27;20059;-63
2022/12/26 09:16:31;;;;;;;3.53;2.80;;;;;;;15.21;38.57;97469.28;5134653;27;20047;-63
2022/12/26 09:19:01;;;;;;;6.68;3.38;;;;;;;14.52;40.84;97465.88;5134822;27;20584;-64
2022/12/26 09:21:30;;;;;;;5.35;3.10;;;;;;;14.02;42.23;97462.47;5134681;27;20058;-63
2022/12/26 09:23:58;;;;;;;5.13;3.40;;;;;;;13.97;42.19;97461.78;5134668;27;20135;-63
2022/12/26 09:26:25;;;;;;;5.40;3.00;;;;;;;13.64;43.48;97458.56;5134682;27;20053;-62
2022/12/26 09:28:54;;;;;;;5.25;3.38;;;;;;;13.67;43.20;97469.88;5134634;27;20053;-63
2022/12/26 09:31:26;;;;;;;6.00;4.03;;;;;;;13.26;44.68;97464.22;5134457;27;20058;-64
2022/12/26 09:33:53;;;;;;;7.03;4.00;;;;;;;12.89;45.40;97455.78;5134400;27;20054;-63
2022/12/26 09:36:26;;;;;;;6.15;3.78;;;;;;;12.69;45.20;97463.47;5134515;27;20450;-61
2022/12/26 09:38:55;;;;;;;6.10;3.40;;;;;;;12.63;45.39;97459.25;5134414;27;20075;-62
2022/12/26 09:41:36;;;;;;;6.97;3.30;;;;;;;12.66;45.83;97458.31;5134348;27;20049;-64
2022/12/26 09:44:10;;;;;;;5.45;3.45;;;;;;;12.40;46.69;97452.13;5134051;27;20047;-66
2022/12/26 09:46:49;;;;;;;7.10;3.80;;;;;;;12.48;46.29;97450.09;5134282;27;20408;-62
2022/12/26 09:49:20;;;;;;;6.95;3.60;;;;;;;12.25;46.65;97456.91;5134104;27;20408;-65
2022/12/26 09:51:54;;;;;;;5.60;3.20;;;;;;;12.14;47.60;97452.00;5134090;27;20067;-63
2022/12/26 09:54:31;;;;;;;4.95;3.13;;;;;;;12.22;46.93;97443.91;5134178;27;20086;-63
2022/12/26 09:57:02;;;;;;;5.82;3.05;;;;;;;12.16;46.92;97449.34;5134244;27;20047;-62
2022/12/26 09:59:34;;;;;;;3.03;2.72;;;;;;;12.08;46.67;97447.81;5134138;27;20126;-65
2022/12/26 10:02:02;;;;;;;4.55;2.97;;;;;;;11.95;47.06;97443.78;5134216;27;20527;-64
2022/12/26 10:04:30;;;;;;;4.63;2.67;;;;;;;11.95;47.42;97441.19;5134037;27;20047;-64
2022/12/26 10:07:15;;;;;;;9.20;3.38;;;;;;;12.00;47.47;97434.88;5134014;27;20485;-62
2022/12/26 10:10:12;;;;;;;10.38;2.80;;;;;;;12.13;46.89;97438.03;5133831;28;20469;-63
2022/12/26 10:12:49;;;;;;;6.13;3.30;;;;;;;12.08;47.95;97431.22;5132400;27;20073;-65
2022/12/26 10:15:31;;;;;;;6.50;3.50;;;;;;;11.91;48.50;97416.78;5140610;27;20071;-61
2022/12/26 10:18:12;;;;;;;4.40;3.20;;;;;;;11.90;48.05;97409.84;5140752;27;20055;-64
2022/12/26 10:21:00;;;;;;;9.75;3.53;;;;;;;11.96;47.84;97411.41;5140769;27;20058;-63
2022/12/26 10:23:33;;;;;;;9.80;3.88;;;;;;;11.95;47.88;97412.34;5140737;27;20099;-63
2022/12/26 10:26:09;;;;;;;7.28;3.60;;;;;;;11.98;48.88;97409.63;5140762;27;20043;-64
2022/12/26 10:28:41;;;;;;;8.32;3.85;;;;;;;12.11;48.70;97405.75;5140977;27;20047;-63
2022/12/26 10:31:17;;;;;;;7.47;3.28;;;;;;;12.08;47.56;97407.59;5140755;27;20072;-62
2022/12/26 10:33:49;;;;;;;6.55;3.83;;;;;;;12.07;48.99;97403.28;5140579;27;20055;-65
2022/12/26 10:36:26;;;;;;;6.72;3.60;;;;;;;12.08;47.15;97395.34;5140801;27;20080;-63
2022/12/26 10:38:57;;;;;;;11.93;3.40;;;;;;;12.13;47.15;97389.94;5140574;27;20047;-64
2022/12/26 10:41:31;;;;;;;5.60;3.40;;;;;;;12.20;48.04;97394.13;5140657;27;20051;-63
2022/12/26 10:43:58;;;;;;;8.32;3.53;;;;;;;12.25;48.23;97388.72;5140437;27;20051;-63
2022/12/26 10:47:02;;;;;;;6.38;3.28;;;;;;;12.25;47.77;97384.31;5140771;27;20508;-65
2022/12/26 10:49:30;;;;;;;4.93;3.05;;;;;;;12.26;46.89;97377.31;5140737;27;20043;-63
2022/12/26 10:52:03;;;;;;;5.15;2.80;;;;;;;12.14;46.40;97370.69;5140400;27;20044;-64
2022/12/26 10:54:33;;;;;;;5.07;2.60;;;;;;;11.91;47.03;97369.59;5140392;27;20047;-60
2022/12/26 10:57:02;;;;;;;6.40;2.97;;;;;;;11.92;48.33;97370.47;5140381;27;20129;-61
2022/12/26 10:59:39;;;;;;;5.97;2.50;;;;;;;11.85;47.64;97369.78;5140341;27;20287;-62
2022/12/26 11:02:22;;;;;;;5.68;2.55;;;;;;;11.82;48.29;97368.13;5140480;27;20065;-64
2022/12/26 11:05:06;;;;;;;5.05;2.42;;;;;;;11.81;47.93;97373.41;5140509;27;20082;-65
2022/12/26 11:07:38;;;;;;;7.78;2.97;;;;;;;11.74;48.04;97375.38;5140227;27;20042;-60
2022/12/26 11:10:18;;;;;;;7.53;2.92;;;;;;;11.78;49.16;97369.13;5140506;27;20412;-65
2022/12/26 11:12:49;;;;;;;5.32;3.00;;;;;;;11.80;48.07;97375.16;5140340;27;20591;-62
2022/12/26 11:15:27;;;;;;;6.70;3.05;;;;;;;11.79;48.17;97362.97;5140324;27;20054;-63
2022/12/26 11:18:07;;;;;;;4.30;2.90;;;;;;;11.85;47.75;97368.03;5140541;27;20043;-63
2022/12/26 11:20:36;;;;;;;6.07;3.25;;;;;;;11.90;48.86;97370.50;5140338;27;20086;-63
2022/12/26 11:23:26;;;;;;;5.57;3.47;;;;;;;11.94;48.25;97364.28;5138193;27;20129;-59
2022/12/26 11:25:59;;;;;;;5.85;3.45;;;;;;;11.82;48.56;97359.38;5137121;27;20065;-64
2022/12/26 11:28:34;;;;;;;5.15;3.63;;;;;;;11.77;48.63;97351.66;5136871;27;20566;-64
2022/12/26 11:31:06;;;;;;;5.20;3.33;;;;;;;11.67;49.22;97345.84;5136899;27;20442;-62
2022/12/26 11:33:47;;;;;;;6.10;3.50;;;;;;;11.68;48.85;97344.09;5136742;27;20055;-63
2022/12/26 11:36:22;;;;;;;6.53;2.78;;;;;;;11.68;48.94;97352.78;5136976;27;20047;-63
2022/12/26 11:38:54;;;;;;;6.28;2.92;;;;;;;11.75;47.97;97350.88;5136866;27;20396;-63
2022/12/26 11:41:40;;;;;;;5.35;2.65;;;;;;;11.63;48.19;97352.91;5136632;27;20476;-64
2022/12/26 11:44:23;;;;;;;3.55;2.30;;;;;;;11.62;48.04;97345.13;5136318;27;20047;-63
2022/12/26 11:46:55;;;;;;;5.10;2.40;;;;;;;11.62;49.49;97339.91;5136621;27;20104;-63
2022/12/26 11:49:29;;;;;;;6.22;2.55;;;;;;;11.63;49.49;97341.59;5136402;27;20134;-65
2022/12/26 11:51:58;;;;;;;3.67;2.45;;;;;;;11.64;50.07;97348.56;5136416;27;20190;-63
2022/12/26 11:54:34;;;;;;;3.53;2.20;;;;;;;11.56;49.43;97343.53;5136273;27;20055;-62
2022/12/26 11:57:22;;;;;;;3.30;2.13;;;;;;;11.67;49.58;97345.84;5136257;27;20283;-64
2022/12/26 11:59:56;;;;;;;4.32;2.65;;;;;;;11.70;49.14;97345.75;5136428;27;20047;-61
2022/12/26 12:02:28;;;;;;;4.05;2.30;;;;;;;11.75;49.37;97343.00;5136322;27;20107;-64
2022/12/26 12:05:02;;;;;;;3.70;2.25;;;;;;;11.76;49.10;97339.47;5136385;27;20519;-60
2022/12/26 12:07:54;;;;;;;3.75;2.03;;;;;;;11.80;48.62;97335.00;5136252;27;20068;-62
2022/12/26 12:10:46;;;;;;;3.80;2.30;;;;;;;11.65;48.31;97328.44;5136456;27;20462;-64
2022/12/26 12:13:26;;;;;;;5.75;2.63;;;;;;;11.56;48.83;97327.81;5136051;27;20579;-63
2022/12/26 12:16:00;;;;;;;3.97;2.33;;;;;;;11.60;48.79;97333.81;5136079;27;20040;-62
2022/12/26 12:18:41;;;;;;;5.13;2.50;;;;;;;11.59;48.87;97335.56;5135961;27;20493;-62
2022/12/26 12:21:18;;;;;;;;;;;;;;;11.65;49.76;97337.16;5136351;27;20043;-60
2022/12/26 12:24:12;;;;;;;6.75;2.80;;;;;;;11.62;49.53;97339.91;5135125;27;19923;-61
2022/12/26 12:26:47;;;;;;;3.88;2.45;;;;;;;11.71;49.36;97346.63;5135596;27;20125;-64
2022/12/26 12:29:30;;;;;;;4.18;2.60;;;;;;;11.66;49.18;97343.25;5135701;27;20055;-65
2022/12/26 12:32:10;;;;;;;5.45;2.53;;;;;;;11.68;49.32;97344.09;5135510;27;20140;-63
2022/12/26 12:34:46;;;;;;;;;;;;;;;11.69;49.63;97344.03;5135522;27;20047;-63
2022/12/26 12:37:31;;;;;;;5.05;3.13;;;;;;;11.63;50.03;97354.69;5135494;27;19919;-61
2022/12/26 12:40:14;;;;;;;4.78;2.53;;;;;;;11.52;50.35;97348.91;5135434;27;20094;-63
2022/12/26 12:42:53;;;;;;;4.40;2.67;;;;;;;11.42;50.55;97351.81;5135510;27;20043;-64
2022/12/26 12:45:32;;;;;;;4.03;2.50;;;;;;;11.52;49.65;97354.13;5135377;27;20039;-64
2022/12/26 12:48:43;;;;;;;6.32;3.58;;;;;;;11.53;50.28;97356.72;5135257;27;20057;-63
2022/12/26 12:51:23;;;;;;;4.63;2.30;;;;;;;11.44;50.04;97349.97;5135312;27;20458;-63
2022/12/26 12:54:11;;;;;;;3.72;2.58;;;;;;;11.38;50.08;97345.78;5135232;27;20050;-64
2022/12/26 12:56:45;;;;;;;5.82;3.08;;;;;;;11.40;50.32;97345.75;5135186;27;20084;-62
2022/12/26 12:59:39;;;;;;;4.95;3.00;;;;;;;11.43;50.24;97339.53;5135239;27;20050;-62
2022/12/26 13:02:30;;;;;;;7.93;4.07;;;;;;;11.50;50.28;97341.13;5135033;27;20423;-64
2022/12/26 13:05:10;;;;;;;7.78;3.45;;;;;;;11.48;50.29;97335.91;5135329;27;20051;-63
2022/12/26 13:07:47;;;;;;;6.82;3.17;;;;;;;11.38;50.46;97337.91;5135045;27;20051;-62
2022/12/26 13:10:22;;;;;;;5.75;3.22;;;;;;;11.35;50.86;97335.38;5134850;27;20092;-62
2022/12/26 13:12:53;;;;;;;5.18;3.28;;;;;;;11.45;50.61;97333.38;5134921;27;20055;-65
2022/12/26 13:15:36;;;;;;;8.63;3.92;;;;;;;11.41;50.66;97334.34;5134709;27;20047;-60
2022/12/26 13:18:15;;;;;;;7.47;3.53;;;;;;;11.33;50.76;97321.50;5134715;27;20043;-62
2022/12/26 13:20:54;;;;;;;6.72;3.10;;;;;;;11.33;50.77;97316.25;5134725;27;20509;-62
2022/12/26 13:26:14;;;;;;;;;;;;;;;11.24;51.02;97314.75;5135192;27;20124;-61
2022/12/26 13:28:58;;;;;;;5.37;2.67;;;;;;;11.22;51.13;97315.69;5134757;27;19966;-65
2022/12/26 13:31:25;;;;;;;7.30;3.30;;;;;;;11.12;51.54;97309.84;5134623;27;20150;-62
2022/12/26 13:33:58;;;;;;;4.88;3.13;;;;;;;11.06;51.85;97323.13;5134396;27;20134;-65
2022/12/26 13:36:48;;;;;;;5.30;3.40;;;;;;;11.03;51.87;97326.69;5134368;27;20467;-64
2022/12/26 13:39:44;;;;;;;5.07;3.45;;;;;;;10.87;52.02;97329.69;5134517;27;20047;-63
2022/12/26 13:46:01;;;;;;;9.57;3.22;;;;;;;10.76;52.73;97334.38;5133788;27;20058;-60
2022/12/26 13:49:10;;;;;;;4.30;3.38;;;;;;;10.70;52.95;97338.00;5134065;27;20087;-62
2022/12/26 13:52:26;;;;;;;5.65;4.07;;;;;;;10.53;53.37;97329.75;5134139;27;20047;-62
2022/12/26 13:55:27;;;;;;;9.13;4.32;;;;;;;10.47;53.51;97331.59;5134079;27;20111;-59
2022/12/26 13:58:27;;;;;;;5.93;4.18;;;;;;;10.48;53.55;97340.31;5100436;27;20406;-59
2022/12/26 14:01:10;;;;;;;9.82;5.03;;;;;;;10.46;53.62;97335.13;5134215;27;20043;-62
2022/12/26 14:04:12;;;;;;;25.40;11.82;;;;;;;10.46;53.52;97332.50;5134242;27;20087;-62
2022/12/26 14:07:13;;;;;;;9.43;6.25;;;;;;;10.40;53.78;97330.00;5133786;27;20047;-61
2022/12/26 14:10:02;;;;;;;13.55;6.00;;;;;;;10.41;53.88;97336.94;5134117;28;20054;-64
2022/12/26 14:12:51;;;;;;;8.63;5.70;;;;;;;10.36;53.76;97344.91;5134154;28;20051;-62
2022/12/26 14:15:40;;;;;;;11.18;6.43;;;;;;;10.34;53.81;97344.09;5133822;28;20047;-62